createdAt,value
2018-10-17T00:00:36.929Z,13.17
2018-10-17T00:03:05.472Z,14.53
2018-10-17T00:05:34.268Z,11.33
2018-10-17T00:08:02.767Z,12.87
2018-10-17T00:10:31.218Z,11.90
2018-10-17T00:13:00.241Z,13.73
2018-10-17T00:15:28.713Z,12.07
2018-10-17T00:17:57.213Z,13.50
2018-10-17T00:20:25.671Z,12.97
2018-10-17T00:22:54.323Z,13.23
2018-10-17T00:25:22.804Z,14.10
2018-10-17T00:27:51.280Z,14.10
2018-10-17T00:30:19.788Z,15.30
2018-10-17T00:32:49.127Z,16.70
2018-10-17T00:35:17.599Z,14.13
2018-10-17T00:37:45.860Z,17.07
2018-10-17T00:40:14.222Z,19.63
2018-10-17T00:42:42.624Z,17.23
2018-10-17T00:45:10.911Z,14.57
2018-10-17T00:47:39.404Z,15.57
2018-10-17T00:50:07.859Z,15.20
2018-10-17T00:52:36.344Z,14.43
2018-10-17T00:55:04.882Z,14.27
2018-10-17T00:57:33.218Z,14.47
2018-10-17T01:00:01.611Z,17.23
2018-10-17T01:02:30.052Z,16.30
2018-10-17T01:04:58.476Z,14.27
2018-10-17T01:07:26.867Z,14.53
2018-10-17T01:09:55.197Z,17.70
2018-10-17T01:12:23.567Z,15.57
2018-10-17T01:14:51.953Z,16.73
2018-10-17T01:17:20.352Z,14.80
2018-10-17T01:19:48.705Z,19.37
2018-10-17T01:22:17.111Z,17.57
2018-10-17T01:24:45.452Z,16.97
2018-10-17T01:27:13.876Z,19.53
2018-10-17T01:29:42.284Z,19.50
2018-10-17T01:32:10.647Z,16.57
2018-10-17T01:34:39.129Z,16.50
2018-10-17T01:37:07.539Z,18.57
2018-10-17T01:39:35.976Z,18.20
2018-10-17T01:42:04.982Z,16.27
2018-10-17T01:44:33.428Z,17.50
2018-10-17T01:47:01.889Z,15.70
2018-10-17T01:49:30.250Z,18.10
2018-10-17T01:51:58.725Z,19.37
2018-10-17T01:54:27.192Z,19.10
2018-10-17T01:56:55.613Z,18.80
2018-10-17T01:59:24.040Z,17.50
2018-10-17T02:01:52.499Z,19.93
2018-10-17T02:04:21.008Z,18.00
2018-10-17T02:06:49.417Z,17.77
2018-10-17T02:09:17.812Z,17.77
2018-10-17T02:11:46.299Z,17.53
2018-10-17T02:14:14.753Z,17.50
2018-10-17T02:16:43.286Z,18.07
2018-10-17T02:19:11.756Z,15.50
2018-10-17T02:21:40.060Z,18.67
2018-10-17T02:24:08.736Z,19.07
2018-10-17T02:26:37.216Z,20.47
2018-10-17T02:29:05.990Z,19.50
2018-10-17T02:31:34.516Z,20.97
2018-10-17T02:34:03.049Z,18.50
2018-10-17T02:36:31.528Z,19.33
2018-10-17T02:39:00.091Z,19.10
2018-10-17T02:41:28.547Z,21.70
2018-10-17T02:43:56.963Z,19.57
2018-10-17T02:46:25.459Z,18.53
2018-10-17T02:48:53.933Z,19.97
2018-10-17T02:51:22.760Z,16.93
2018-10-17T02:53:51.251Z,17.40
2018-10-17T02:56:19.660Z,19.03
2018-10-17T02:58:48.068Z,17.33
2018-10-17T03:01:16.577Z,17.13
2018-10-17T03:03:44.938Z,19.43
2018-10-17T03:06:13.340Z,16.27
2018-10-17T03:08:41.744Z,21.00
2018-10-17T03:11:10.230Z,17.53
2018-10-17T03:13:38.960Z,17.60
2018-10-17T03:16:07.424Z,18.87
2018-10-17T03:18:35.821Z,16.27
2018-10-17T03:21:04.228Z,18.83
2018-10-17T03:23:32.628Z,15.73
2018-10-17T03:26:01.032Z,18.30
2018-10-17T03:28:29.465Z,19.60
2018-10-17T03:30:57.941Z,18.20
2018-10-17T03:33:26.241Z,18.23
2018-10-17T03:35:54.739Z,17.07
2018-10-17T03:38:23.189Z,17.63
2018-10-17T03:40:51.668Z,16.90
2018-10-17T03:43:20.120Z,15.83
2018-10-17T03:45:48.544Z,17.53
2018-10-17T03:48:17.001Z,18.03
2018-10-17T03:50:45.363Z,16.63
2018-10-17T03:53:13.801Z,17.90
2018-10-17T03:55:42.163Z,29.47
2018-10-17T03:58:10.533Z,17.80
2018-10-17T04:00:38.926Z,19.43
2018-10-17T04:03:09.742Z,18.07
2018-10-17T04:05:38.096Z,18.30
2018-10-17T04:08:06.489Z,20.90
2018-10-17T04:10:34.893Z,21.00
2018-10-17T04:13:03.758Z,17.60
2018-10-17T04:15:32.092Z,18.40
2018-10-17T04:18:02.213Z,20.00
2018-10-17T04:20:30.578Z,22.50
2018-10-17T04:22:59.085Z,19.73
2018-10-17T04:25:27.507Z,23.73
2018-10-17T04:27:55.870Z,19.00
2018-10-17T04:30:24.407Z,19.13
2018-10-17T04:32:52.772Z,16.70
2018-10-17T04:35:21.180Z,18.67
2018-10-17T04:37:49.522Z,18.60
2018-10-17T04:40:17.891Z,18.70
2018-10-17T04:42:46.224Z,20.20
2018-10-17T04:45:14.584Z,17.30
2018-10-17T04:47:43.059Z,16.47
2018-10-17T04:50:12.028Z,21.77
2018-10-17T04:52:40.775Z,20.17
2018-10-17T04:55:10.328Z,18.03
2018-10-17T04:57:38.732Z,18.57
2018-10-17T05:00:10.228Z,17.30
2018-10-17T05:02:38.729Z,16.90
2018-10-17T05:05:07.187Z,20.77
2018-10-17T05:07:35.636Z,21.80
2018-10-17T05:10:04.233Z,22.57
2018-10-17T05:12:32.672Z,22.73
2018-10-17T05:15:01.147Z,22.50
2018-10-17T05:17:29.640Z,18.50
2018-10-17T05:19:58.315Z,22.93
2018-10-17T05:22:26.688Z,22.10
2018-10-17T05:24:55.682Z,20.90
2018-10-17T05:27:24.044Z,44.07
2018-10-17T05:29:52.526Z,21.03
2018-10-17T05:32:20.872Z,18.93
2018-10-17T05:34:49.357Z,22.73
2018-10-17T05:37:18.000Z,21.67
2018-10-17T05:39:46.308Z,17.83
2018-10-17T05:42:14.799Z,22.20
2018-10-17T05:44:43.463Z,19.83
2018-10-17T05:47:12.163Z,22.43
2018-10-17T05:49:40.698Z,20.50
2018-10-17T05:52:09.177Z,21.50
2018-10-17T05:54:37.693Z,19.60
2018-10-17T05:57:06.809Z,27.37
2018-10-17T05:59:35.380Z,23.10
2018-10-17T06:02:23.880Z,20.63
2018-10-17T06:04:52.210Z,28.53
2018-10-17T06:07:21.653Z,16.40
2018-10-17T06:09:50.263Z,18.07
2018-10-17T06:12:19.220Z,24.10
2018-10-17T06:14:47.725Z,16.83
2018-10-17T06:17:16.262Z,26.73
2018-10-17T06:19:44.823Z,23.77
2018-10-17T06:22:14.317Z,16.43
2018-10-17T06:24:43.066Z,21.00
2018-10-17T06:27:11.753Z,20.00
2018-10-17T06:29:40.472Z,19.50
2018-10-17T06:32:09.033Z,21.60
2018-10-17T06:34:37.541Z,23.77
2018-10-17T06:37:06.860Z,20.90
2018-10-17T06:39:35.387Z,20.87
2018-10-17T06:42:03.969Z,23.30
2018-10-17T06:44:32.422Z,24.63
2018-10-17T06:47:01.007Z,22.03
2018-10-17T06:49:29.399Z,17.67
2018-10-17T06:51:58.859Z,16.40
2018-10-17T06:54:27.538Z,19.17
2018-10-17T06:56:55.911Z,19.07
2018-10-17T06:59:24.375Z,22.53
2018-10-17T07:01:52.903Z,28.00
2018-10-17T07:04:21.249Z,29.40
2018-10-17T07:06:49.716Z,34.87
2018-10-17T07:09:18.253Z,33.10
2018-10-17T07:11:46.569Z,24.43
2018-10-17T07:14:15.078Z,23.27
2018-10-17T07:16:43.496Z,21.23
2018-10-17T07:19:12.073Z,18.60
2018-10-17T07:21:40.365Z,20.07
2018-10-17T07:24:08.892Z,16.47
2018-10-17T07:26:37.384Z,28.53
2018-10-17T07:29:06.052Z,18.23
2018-10-17T07:31:34.401Z,20.47
2018-10-17T07:34:02.806Z,21.13
2018-10-17T07:36:31.212Z,17.93
2018-10-17T07:38:59.733Z,33.67
2018-10-17T07:41:28.233Z,13.83
2018-10-17T07:43:56.687Z,16.10
2018-10-17T07:46:25.201Z,18.13
2018-10-17T07:48:53.629Z,25.47
2018-10-17T07:51:22.110Z,18.90
2018-10-17T07:53:50.580Z,20.27
2018-10-17T07:56:19.081Z,18.60
2018-10-17T07:58:48.460Z,21.60
2018-10-17T08:01:17.032Z,15.17
2018-10-17T08:03:45.599Z,19.70
2018-10-17T08:06:14.084Z,17.17
2018-10-17T08:08:42.456Z,17.93
2018-10-17T08:11:10.920Z,15.60
2018-10-17T08:13:39.431Z,23.00
2018-10-17T08:16:07.860Z,16.57
2018-10-17T08:18:36.773Z,10.70
2018-10-17T08:21:05.381Z,13.10
2018-10-17T08:23:33.856Z,18.13
2018-10-17T08:26:02.357Z,13.97
2018-10-17T08:28:30.830Z,21.83
2018-10-17T08:30:59.410Z,14.43
2018-10-17T08:33:28.844Z,23.50
2018-10-17T08:35:57.618Z,13.40
2018-10-17T08:38:26.116Z,13.03
2018-10-17T08:40:54.647Z,9.50
2018-10-17T08:43:23.142Z,14.07
2018-10-17T08:45:51.675Z,27.90
2018-10-17T08:48:20.153Z,8.97
2018-10-17T08:50:48.685Z,15.13
2018-10-17T08:53:17.059Z,13.93
2018-10-17T08:55:45.606Z,9.20
2018-10-17T08:58:14.106Z,12.80
2018-10-17T09:00:42.666Z,11.93
2018-10-17T09:03:11.214Z,6.90
2018-10-17T09:05:40.125Z,10.33
2018-10-17T09:08:08.636Z,7.30
2018-10-17T09:10:37.105Z,9.13
2018-10-17T09:13:05.657Z,9.93
2018-10-17T09:15:38.379Z,8.13
2018-10-17T09:18:02.653Z,9.00
2018-10-17T09:20:31.093Z,7.10
2018-10-17T09:22:59.363Z,18.00
2018-10-17T09:25:27.798Z,6.47
2018-10-17T09:27:56.318Z,9.80
2018-10-17T09:30:24.786Z,6.40
2018-10-17T09:32:53.121Z,6.73
2018-10-17T09:35:21.593Z,6.70
2018-10-17T09:37:50.084Z,6.57
2018-10-17T09:40:18.654Z,6.03
2018-10-17T09:42:46.997Z,5.03
2018-10-17T09:45:15.341Z,4.10
2018-10-17T09:47:43.802Z,5.43
2018-10-17T09:50:12.166Z,4.07
2018-10-17T09:52:40.575Z,4.77
2018-10-17T09:55:09.412Z,6.20
2018-10-17T09:57:37.783Z,9.80
2018-10-17T10:00:11.788Z,4.57
2018-10-17T10:02:40.124Z,3.63
2018-10-17T10:05:08.557Z,5.60
2018-10-17T10:07:36.940Z,3.87
2018-10-17T10:10:07.729Z,5.50
2018-10-17T10:12:36.091Z,8.73
2018-10-17T10:15:04.545Z,4.47
2018-10-17T10:17:33.048Z,4.37
2018-10-17T10:20:01.339Z,4.97
2018-10-17T10:22:29.716Z,4.93
2018-10-17T10:24:58.172Z,4.33
2018-10-17T10:27:26.589Z,5.10
2018-10-17T10:29:56.108Z,4.97
2018-10-17T10:32:24.462Z,5.07
2018-10-17T10:34:53.032Z,5.50
2018-10-17T10:37:21.410Z,4.57
2018-10-17T10:39:49.863Z,4.87
2018-10-17T10:42:18.402Z,7.47
2018-10-17T10:44:47.131Z,10.27
2018-10-17T10:47:15.673Z,5.43
2018-10-17T10:49:44.170Z,5.80
2018-10-17T10:52:12.624Z,5.10
2018-10-17T10:54:41.679Z,8.20
2018-10-17T10:57:10.363Z,6.00
2018-10-17T10:59:38.862Z,5.57
2018-10-17T11:02:07.167Z,7.67
2018-10-17T11:04:35.600Z,5.00
2018-10-17T11:07:04.006Z,6.30
2018-10-17T11:09:32.417Z,6.00
2018-10-17T11:12:00.890Z,5.60
2018-10-17T11:14:29.432Z,6.07
2018-10-17T11:16:58.010Z,5.10
2018-10-17T11:19:26.747Z,6.87
2018-10-17T11:21:55.341Z,7.07
2018-10-17T11:24:23.757Z,5.67
2018-10-17T11:26:52.237Z,5.47
2018-10-17T11:29:20.637Z,5.40
2018-10-17T11:31:49.165Z,4.40
2018-10-17T11:34:17.762Z,6.70
2018-10-17T11:36:49.896Z,5.23
2018-10-17T11:39:18.387Z,4.83
2018-10-17T11:44:24.252Z,4.27
2018-10-17T11:46:52.604Z,3.90
2018-10-17T11:49:21.151Z,4.93
2018-10-17T11:51:49.643Z,4.33
2018-10-17T11:54:18.001Z,4.20
2018-10-17T11:56:46.368Z,5.33
2018-10-17T11:59:15.140Z,5.20
2018-10-17T12:01:43.376Z,4.10
2018-10-17T12:04:11.921Z,5.17
2018-10-17T12:06:40.215Z,6.57
2018-10-17T12:09:09.409Z,5.07
2018-10-17T12:14:22.235Z,4.60
2018-10-17T12:16:51.633Z,6.30
2018-10-17T12:19:20.112Z,6.23
2018-10-17T12:21:48.550Z,4.70
2018-10-17T12:24:17.139Z,4.87
2018-10-17T12:26:45.519Z,7.30
2018-10-17T12:29:14.064Z,6.70
2018-10-17T12:31:42.461Z,6.47
2018-10-17T12:34:10.974Z,6.40
2018-10-17T12:36:39.567Z,9.33
2018-10-17T12:39:11.072Z,6.63
2018-10-17T12:41:39.565Z,6.30
2018-10-17T12:44:08.176Z,5.67
2018-10-17T12:46:36.753Z,11.13
2018-10-17T12:49:05.410Z,6.10
2018-10-17T12:51:33.887Z,8.33
2018-10-17T12:54:02.475Z,6.53
2018-10-17T12:56:30.989Z,6.37
2018-10-17T12:58:59.635Z,8.27
2018-10-17T13:01:28.232Z,7.63
2018-10-17T13:03:56.716Z,7.30
2018-10-17T13:06:27.925Z,7.40
2018-10-17T13:08:56.328Z,7.60
2018-10-17T13:11:27.513Z,7.40
2018-10-17T13:13:55.907Z,7.20
2018-10-17T13:16:24.452Z,8.50
2018-10-17T13:18:53.065Z,8.00
2018-10-17T13:21:21.477Z,12.73
2018-10-17T13:23:49.929Z,6.93
2018-10-17T13:26:18.455Z,8.10
2018-10-17T13:28:46.900Z,8.83
2018-10-17T13:31:15.331Z,9.97
2018-10-17T13:33:43.760Z,7.10
2018-10-17T13:36:12.634Z,7.83
2018-10-17T13:38:41.148Z,7.77
2018-10-17T13:41:09.701Z,7.37
2018-10-17T13:43:38.073Z,7.17
2018-10-17T13:46:06.530Z,10.33
2018-10-17T13:48:36.026Z,11.37
2018-10-17T13:51:04.501Z,13.10
2018-10-17T13:53:34.203Z,7.27
2018-10-17T13:56:03.424Z,7.70
2018-10-17T13:58:32.815Z,9.40
2018-10-17T14:01:01.324Z,8.50
2018-10-17T14:03:29.776Z,9.70
2018-10-17T14:05:58.318Z,8.63
2018-10-17T14:08:28.567Z,6.43
2018-10-17T14:10:57.552Z,9.20
2018-10-17T14:13:26.310Z,6.70
2018-10-17T14:15:58.304Z,10.90
2018-10-17T14:18:26.861Z,7.40
2018-10-17T14:20:59.759Z,8.03
2018-10-17T14:23:30.380Z,6.50
2018-10-17T14:25:58.793Z,6.20
2018-10-17T14:28:27.407Z,7.07
2018-10-17T14:30:55.885Z,6.67
2018-10-17T14:33:24.500Z,7.87
2018-10-17T14:35:54.250Z,7.90
2018-10-17T14:38:22.693Z,7.97
2018-10-17T14:40:51.322Z,7.57
2018-10-17T14:43:19.647Z,8.10
2018-10-17T14:45:48.083Z,7.50
2018-10-17T14:48:16.641Z,7.73
2018-10-17T14:50:45.019Z,8.20
2018-10-17T14:53:13.540Z,9.83
2018-10-17T14:55:41.931Z,7.70
2018-10-17T14:58:10.387Z,7.57
2018-10-17T15:00:39.044Z,11.93
2018-10-17T15:03:07.550Z,9.63
2018-10-17T15:05:35.983Z,13.83
2018-10-17T15:08:04.482Z,9.27
2018-10-17T15:10:33.063Z,9.53
2018-10-17T15:13:01.432Z,7.90
2018-10-17T15:15:29.936Z,8.80
2018-10-17T15:17:58.494Z,13.70
2018-10-17T15:20:27.004Z,14.10
2018-10-17T15:22:55.452Z,9.70
2018-10-17T15:25:23.947Z,7.33
2018-10-17T15:27:52.436Z,8.77
2018-10-17T15:30:20.993Z,8.73
2018-10-17T15:32:49.455Z,9.03
2018-10-17T15:35:17.914Z,9.50
2018-10-17T15:37:46.369Z,19.87
2018-10-17T15:40:14.871Z,8.77
2018-10-17T15:42:43.339Z,10.90
2018-10-17T15:45:11.853Z,13.10
2018-10-17T15:47:40.355Z,11.77
2018-10-17T15:50:08.840Z,10.23
2018-10-17T15:52:37.236Z,11.03
2018-10-17T15:55:06.204Z,15.53
2018-10-17T15:57:34.883Z,9.00
2018-10-17T16:00:03.412Z,7.93
2018-10-17T16:02:32.095Z,14.23
2018-10-17T16:05:00.619Z,10.77
2018-10-17T16:07:29.161Z,13.00
2018-10-17T16:09:57.657Z,10.97
2018-10-17T16:12:26.117Z,14.27
2018-10-17T16:14:54.663Z,10.40
2018-10-17T16:17:23.139Z,10.23
2018-10-17T16:19:51.631Z,8.53
2018-10-17T16:22:20.161Z,16.50
2018-10-17T16:24:48.686Z,13.73
2018-10-17T16:27:17.204Z,7.90
2018-10-17T16:29:45.696Z,9.67
2018-10-17T16:32:15.070Z,10.03
2018-10-17T16:34:44.973Z,10.93
2018-10-17T16:37:13.533Z,14.17
2018-10-17T16:39:42.133Z,15.93
2018-10-17T16:42:10.685Z,8.80
2018-10-17T16:44:39.128Z,11.93
2018-10-17T16:47:14.116Z,22.70
2018-10-17T16:49:42.560Z,19.23
2018-10-17T16:52:11.004Z,14.27
2018-10-17T16:54:40.188Z,16.13
2018-10-17T16:57:10.869Z,11.47
2018-10-17T16:59:39.785Z,10.70
2018-10-17T17:02:08.564Z,11.33
2018-10-17T17:04:37.951Z,20.73
2018-10-17T17:07:07.175Z,14.83
2018-10-17T17:09:35.685Z,15.60
2018-10-17T17:12:11.877Z,15.67
2018-10-17T17:14:40.216Z,13.63
2018-10-17T17:17:09.494Z,16.03
2018-10-17T17:19:38.035Z,16.53
2018-10-17T17:22:06.597Z,17.60
2018-10-17T17:24:35.080Z,13.90
2018-10-17T17:27:04.566Z,14.33
2018-10-17T17:29:33.841Z,17.40
2018-10-17T17:32:02.260Z,13.83
2018-10-17T17:34:31.992Z,20.03
2018-10-17T17:37:00.392Z,19.03
2018-10-17T17:39:29.600Z,14.73
2018-10-17T17:42:00.359Z,16.10
2018-10-17T17:44:29.490Z,19.43
2018-10-17T17:46:57.942Z,15.50
2018-10-17T17:49:27.169Z,24.07
2018-10-17T17:51:55.864Z,18.20
2018-10-17T17:54:24.614Z,24.90
2018-10-17T17:56:53.175Z,19.50
2018-10-17T17:59:21.708Z,28.23
2018-10-17T18:01:50.172Z,14.50
2018-10-17T18:04:18.644Z,21.90
2018-10-17T18:06:47.132Z,16.07
2018-10-17T18:09:15.597Z,17.93
2018-10-17T18:11:44.036Z,13.80
2018-10-17T18:14:12.568Z,14.70
2018-10-17T18:16:40.997Z,15.90
2018-10-17T18:19:09.546Z,16.97
2018-10-17T18:21:38.804Z,17.00
2018-10-17T18:24:07.301Z,20.77
2018-10-17T18:26:35.949Z,19.33
2018-10-17T18:29:04.524Z,18.00
2018-10-17T18:31:33.902Z,17.70
2018-10-17T18:34:05.683Z,14.33
2018-10-17T18:36:35.307Z,13.27
2018-10-17T18:39:04.909Z,18.30
2018-10-17T18:41:33.489Z,17.20
2018-10-17T18:44:02.225Z,18.23
2018-10-17T18:46:30.907Z,14.50
2018-10-17T18:48:59.625Z,17.90
2018-10-17T18:51:28.197Z,16.20
2018-10-17T18:53:56.870Z,18.20
2018-10-17T18:56:25.442Z,17.80
2018-10-17T18:58:54.064Z,17.43
2018-10-17T19:01:22.670Z,20.13
2018-10-17T19:03:51.258Z,23.50
2018-10-17T19:06:19.915Z,14.80
2018-10-17T19:08:48.500Z,16.50
2018-10-17T19:11:17.058Z,15.30
2018-10-17T19:13:45.636Z,14.57
2018-10-17T19:16:14.446Z,15.10
2018-10-17T19:18:42.954Z,16.00
2018-10-17T19:21:14.558Z,15.33
2018-10-17T19:23:45.009Z,15.23
2018-10-17T19:26:16.198Z,45.67
2018-10-17T19:28:47.787Z,19.17
2018-10-17T19:31:17.281Z,20.43
2018-10-17T19:33:46.325Z,17.50
2018-10-17T19:36:15.202Z,18.57
2018-10-17T19:38:44.453Z,15.07
2018-10-17T19:41:12.901Z,15.00
2018-10-17T19:43:41.457Z,17.33
2018-10-17T19:46:10.022Z,16.60
2018-10-17T19:48:38.524Z,18.27
2018-10-17T19:51:07.145Z,16.30
2018-10-17T19:53:35.591Z,22.03
2018-10-17T19:56:04.213Z,15.70
2018-10-17T19:58:33.625Z,18.53
2018-10-17T20:01:03.113Z,17.10
2018-10-17T20:03:31.678Z,17.00
2018-10-17T20:06:01.641Z,19.20
2018-10-17T20:08:45.028Z,17.57
2018-10-17T20:11:13.507Z,20.33
2018-10-17T20:13:42.118Z,23.70
2018-10-17T20:16:10.672Z,16.17
2018-10-17T20:18:39.221Z,26.20
2018-10-17T20:21:07.785Z,19.80
2018-10-17T20:23:36.940Z,20.10
2018-10-17T20:26:05.745Z,18.20
2018-10-17T20:28:34.398Z,21.23
2018-10-17T20:31:02.987Z,21.80
2018-10-17T20:33:31.578Z,19.07
2018-10-17T20:36:00.113Z,20.47
2018-10-17T20:38:30.683Z,23.63
2018-10-17T20:40:59.206Z,15.30
2018-10-17T20:43:30.878Z,18.93
2018-10-17T20:45:59.686Z,20.80
2018-10-17T20:48:29.238Z,19.50
2018-10-17T20:50:57.708Z,20.97
2018-10-17T20:53:26.292Z,16.17
2018-10-17T20:55:54.889Z,17.33
2018-10-17T20:58:23.581Z,22.00
2018-10-17T21:00:51.977Z,16.00
2018-10-17T21:03:20.436Z,17.40
2018-10-17T21:05:48.932Z,17.50
2018-10-17T21:08:17.607Z,15.73
2018-10-17T21:10:46.086Z,15.47
2018-10-17T21:13:14.659Z,18.10
2018-10-17T21:15:43.185Z,19.43
2018-10-17T21:18:11.710Z,15.77
2018-10-17T21:20:40.209Z,16.50
2018-10-17T21:23:08.786Z,18.40
2018-10-17T21:25:37.293Z,15.30
2018-10-17T21:28:06.286Z,19.07
2018-10-17T21:30:34.830Z,18.77
2018-10-17T21:33:03.711Z,26.70
2018-10-17T21:35:32.329Z,18.83
2018-10-17T21:38:00.926Z,25.47
2018-10-17T21:40:29.421Z,19.33
2018-10-17T21:42:58.005Z,18.33
2018-10-17T21:45:26.936Z,19.27
2018-10-17T21:47:55.546Z,21.43
2018-10-17T21:50:24.071Z,25.33
2018-10-17T21:52:52.625Z,28.30
2018-10-17T21:55:21.133Z,25.57
2018-10-17T21:57:49.628Z,20.13
2018-10-17T22:00:19.152Z,21.10
2018-10-17T22:02:47.868Z,20.00
2018-10-17T22:05:16.395Z,27.63
2018-10-17T22:07:44.976Z,24.50
2018-10-17T22:10:13.497Z,27.13
2018-10-17T22:12:41.999Z,26.73
2018-10-17T22:15:11.044Z,24.20
2018-10-17T22:17:39.573Z,24.03
2018-10-17T22:20:08.159Z,24.47
2018-10-17T22:22:36.645Z,26.20
2018-10-17T22:25:05.469Z,27.90
2018-10-17T22:27:34.046Z,29.70
2018-10-17T22:30:02.696Z,29.83
2018-10-17T22:32:31.124Z,26.63
2018-10-17T22:34:59.665Z,26.23
2018-10-17T22:37:28.148Z,29.33
2018-10-17T22:39:56.658Z,23.20
2018-10-17T22:42:25.141Z,27.37
2018-10-17T22:44:53.692Z,26.40
2018-10-17T22:47:22.149Z,26.20
2018-10-17T22:49:50.634Z,26.67
2018-10-17T22:52:19.173Z,35.57
2018-10-17T22:54:47.708Z,27.20
2018-10-17T22:57:16.225Z,26.43
2018-10-17T22:59:44.753Z,32.60
2018-10-17T23:02:13.339Z,31.23
2018-10-17T23:04:41.718Z,33.43
2018-10-17T23:07:10.205Z,26.40
2018-10-17T23:09:38.759Z,27.73
2018-10-17T23:12:07.221Z,27.10
2018-10-17T23:14:35.779Z,30.00
2018-10-17T23:17:04.355Z,32.30
2018-10-17T23:19:34.273Z,32.03
2018-10-17T23:22:02.650Z,30.40
2018-10-17T23:24:31.205Z,30.20
2018-10-17T23:26:59.640Z,27.80
2018-10-17T23:29:28.205Z,32.37
2018-10-17T23:31:56.748Z,38.80
2018-10-17T23:34:25.241Z,33.80
2018-10-17T23:36:53.728Z,34.20
2018-10-17T23:39:22.145Z,32.00
2018-10-17T23:41:50.549Z,43.13
2018-10-17T23:44:19.033Z,31.73
2018-10-17T23:46:47.345Z,35.97
2018-10-17T23:49:15.734Z,33.10
2018-10-17T23:51:44.162Z,36.60
2018-10-17T23:54:12.622Z,30.80
2018-10-17T23:56:41.106Z,38.17
2018-10-17T23:59:09.537Z,43.27
